Time;durP1;ratioP1;P1;durP2;ratioP2;P2;SDS_P1;SDS_P2;PMS_P1;PMS_P2;Temp;Humidity;BMP_temperature;BMP_pressure;BME280_temperature;BME280_humidity;BME280_pressure;Samples;Min_cycle;Max_cycle;Signal;HPM_P1;HPM_P2
2022/04/04 00:02:19;;;;;;;11.35;6.03;;;;;;;1.24;54.25;100663.00;1844118;77;21042;-81
2022/04/04 00:04:45;;;;;;;19.60;6.72;;;;;;;1.20;54.35;100664.00;1815850;77;21055;-80
2022/04/04 00:07:12;;;;;;;16.80;6.80;;;;;;;1.15;54.42;100659.84;1840286;77;21049;-81
2022/04/04 00:09:39;;;;;;;13.48;6.55;;;;;;;1.16;54.62;100657.73;1813317;77;21725;-81
2022/04/04 00:12:07;;;;;;;17.57;6.55;;;;;;;1.23;54.84;100652.53;1818997;77;21261;-81
2022/04/04 00:14:34;;;;;;;14.07;6.45;;;;;;;1.32;54.99;100655.27;1832951;77;21085;-79
2022/04/04 00:17:01;;;;;;;18.12;6.12;;;;;;;1.41;55.15;100643.27;1820963;77;21869;-90
2022/04/04 00:19:27;;;;;;;16.65;5.28;;;;;;;1.43;55.19;100636.47;1816250;77;21038;-89
2022/04/04 00:21:54;;;;;;;13.60;5.08;;;;;;;1.43;55.15;100641.66;1816513;77;21676;-90
2022/04/04 00:24:21;;;;;;;13.15;5.50;;;;;;;1.40;55.28;100636.69;1818777;77;21019;-91
2022/04/04 00:26:48;;;;;;;15.20;6.12;;;;;;;1.34;55.42;100632.91;1817604;77;21006;-91
2022/04/04 00:29:15;;;;;;;12.93;5.70;;;;;;;1.27;55.52;100632.05;1806045;77;21511;-92
2022/04/04 00:31:42;;;;;;;16.73;5.83;;;;;;;1.22;55.68;100632.20;1785153;79;21038;-92
2022/04/04 00:34:09;;;;;;;11.50;5.87;;;;;;;1.20;55.97;100627.28;1842330;77;22462;-92
2022/04/04 00:36:35;;;;;;;13.90;5.25;;;;;;;1.23;56.21;100618.41;1823072;77;20976;-92
2022/04/04 00:39:02;;;;;;;19.10;6.10;;;;;;;1.26;56.37;100625.09;1850805;77;21018;-91
2022/04/04 00:41:31;;;;;;;12.68;5.47;;;;;;;1.28;56.46;100620.89;1808655;77;20988;-91
2022/04/04 00:43:58;;;;;;;10.55;5.30;;;;;;;1.26;56.51;100619.91;1854620;77;20996;-92
2022/04/04 00:46:25;;;;;;;10.80;5.28;;;;;;;1.24;56.66;100615.41;1848542;75;21792;-91
2022/04/04 00:48:58;;;;;;;12.05;4.97;;;;;;;1.18;56.72;100609.86;1805229;79;21092;-93
2022/04/04 00:51:25;;;;;;;9.88;5.22;;;;;;;1.02;56.91;100586.91;1829401;77;21038;-80
2022/04/04 00:53:52;;;;;;;12.90;5.00;;;;;;;1.09;57.06;100602.41;1842339;77;21062;-81
2022/04/04 00:56:18;;;;;;;13.78;5.45;;;;;;;1.04;57.23;100594.38;1815275;77;21114;-81
2022/04/04 00:58:45;;;;;;;8.58;4.55;;;;;;;1.02;57.36;100589.91;1825654;77;21747;-81
2022/04/04 01:01:12;;;;;;;10.15;4.80;;;;;;;1.00;57.58;100580.74;1836280;77;21049;-81
2022/04/04 01:03:39;;;;;;;10.55;4.85;;;;;;;1.00;57.73;100584.62;1840996;77;20996;-92
2022/04/04 01:06:06;;;;;;;10.80;5.55;;;;;;;1.04;57.99;100579.23;1821165;77;21026;-92
2022/04/04 01:08:33;;;;;;;7.97;4.78;;;;;;;1.14;58.18;100574.67;1826638;77;21034;-91
2022/04/04 01:11:00;;;;;;;6.30;4.45;;;;;;;1.25;58.29;100571.42;1847534;76;21740;-90
2022/04/04 01:13:27;;;;;;;10.68;4.85;;;;;;;1.34;58.44;100573.27;1849662;77;21036;-90
2022/04/04 01:15:54;;;;;;;9.18;4.85;;;;;;;1.44;58.53;100563.44;1830342;77;21324;-91
2022/04/04 01:18:20;;;;;;;9.05;3.95;;;;;;;1.48;58.57;100557.62;1842170;77;21018;-93
2022/04/04 01:20:53;;;;;;;8.90;5.05;;;;;;;1.57;58.69;100558.56;1858248;77;21015;-92
2022/04/04 01:23:25;;;;;;;6.58;4.28;;;;;;;1.64;58.84;100553.81;1861578;77;21968;-90
2022/04/04 01:25:51;;;;;;;14.00;4.95;;;;;;;1.71;59.01;100549.47;1861651;77;21704;-92
2022/04/04 01:28:19;;;;;;;10.88;4.70;;;;;;;1.80;59.20;100545.19;1861311;77;21014;-92
2022/04/04 01:30:51;;;;;;;6.83;4.30;;;;;;;1.87;59.45;100538.66;1834653;77;21002;-92
2022/04/04 01:33:21;;;;;;;9.55;4.85;;;;;;;1.94;59.82;100537.79;1840858;77;21026;-91
2022/04/04 01:35:48;;;;;;;6.03;4.17;;;;;;;2.04;60.19;100536.59;1834275;77;22524;-80
2022/04/04 01:38:15;;;;;;;11.18;4.95;;;;;;;2.13;60.74;100530.61;1823707;77;21242;-80
2022/04/04 01:40:42;;;;;;;6.90;4.28;;;;;;;2.21;61.23;100531.45;1828415;77;21162;-79
2022/04/04 01:43:10;;;;;;;9.45;4.78;;;;;;;2.25;61.60;100532.09;1825618;77;21287;-92
2022/04/04 01:48:23;;;;;;;5.58;4.10;;;;;;;2.27;62.13;100515.81;1846759;77;21789;-80
2022/04/04 01:50:50;;;;;;;5.65;4.35;;;;;;;2.27;62.36;100514.52;1833404;77;21038;-79
2022/04/04 01:53:26;;;;;;;6.37;4.35;;;;;;;2.28;62.43;100508.91;1825216;77;21052;-80
2022/04/04 01:55:54;;;;;;;5.97;4.35;;;;;;;2.26;62.65;100504.92;1825671;77;21049;-80
2022/04/04 01:58:21;;;;;;;8.30;4.65;;;;;;;2.25;62.82;100495.73;1825466;77;21051;-80
2022/04/04 02:00:48;;;;;;;9.20;4.25;;;;;;;2.23;63.00;100503.44;1836651;77;21744;-80
2022/04/04 02:03:15;;;;;;;8.73;4.80;;;;;;;2.23;63.19;100498.25;1836620;77;21045;-81
2022/04/04 02:05:41;;;;;;;8.03;4.30;;;;;;;2.26;63.31;100497.13;1833713;77;21007;-91
2022/04/04 02:08:09;;;;;;;7.30;4.45;;;;;;;2.26;63.31;100487.16;1839480;77;21570;-81
2022/04/04 02:10:35;;;;;;;6.30;4.90;;;;;;;2.28;63.44;100486.83;1824555;77;21026;-82
2022/04/04 02:13:02;;;;;;;5.95;4.87;;;;;;;2.27;63.55;100479.45;1842097;77;22405;-92
2022/04/04 02:15:29;;;;;;;7.28;4.97;;;;;;;2.30;63.60;100477.41;1834246;77;21053;-92
2022/04/04 02:17:56;;;;;;;6.28;4.60;;;;;;;2.32;63.78;100476.67;1848309;77;21042;-91
2022/04/04 02:20:23;;;;;;;8.85;4.72;;;;;;;2.35;63.92;100479.86;1845618;77;21699;-92
2022/04/04 02:22:50;;;;;;;5.70;4.42;;;;;;;2.39;64.03;100479.20;1856112;77;21015;-90
2022/04/04 02:25:17;;;;;;;7.50;5.22;;;;;;;2.42;64.15;100470.28;1841357;77;21734;-81
2022/04/04 02:27:44;;;;;;;8.78;5.20;;;;;;;2.45;64.20;100473.03;1845861;77;21042;-80
2022/04/04 02:30:12;;;;;;;7.28;5.25;;;;;;;2.48;64.30;100466.70;1827966;77;21037;-80
2022/04/04 02:32:39;;;;;;;11.43;5.33;;;;;;;2.52;64.32;100461.27;1825031;77;21061;-91
2022/04/04 02:35:06;;;;;;;6.97;5.20;;;;;;;2.51;64.31;100465.55;1844684;77;21567;-90
2022/04/04 02:37:33;;;;;;;8.30;4.85;;;;;;;2.47;64.31;100459.70;1834825;77;22550;-90
2022/04/04 02:40:00;;;;;;;9.28;4.85;;;;;;;2.46;64.47;100460.92;1821539;78;21021;-91
2022/04/04 02:42:27;;;;;;;7.58;5.22;;;;;;;2.43;64.52;100456.47;1851317;75;21014;-80
2022/04/04 02:44:54;;;;;;;8.33;5.35;;;;;;;2.40;64.65;100452.81;1847106;77;21125;-91
2022/04/04 02:47:21;;;;;;;8.35;5.17;;;;;;;2.40;64.87;100452.40;1854092;77;21035;-81
2022/04/04 02:49:47;;;;;;;8.83;5.35;;;;;;;2.41;65.02;100447.70;1834843;77;21737;-80
2022/04/04 02:52:14;;;;;;;6.75;4.97;;;;;;;2.38;65.06;100438.86;1829740;77;21025;-91
2022/04/04 02:54:41;;;;;;;8.93;4.97;;;;;;;2.36;65.10;100443.08;1836927;77;21042;-80
2022/04/04 02:57:08;;;;;;;7.53;4.97;;;;;;;2.30;65.17;100438.04;1852026;77;21073;-80
2022/04/04 02:59:35;;;;;;;6.55;4.62;;;;;;;2.23;65.23;100429.43;1824883;77;21497;-92
2022/04/04 03:02:01;;;;;;;6.85;4.60;;;;;;;2.16;65.34;100432.92;1832154;77;21744;-80
2022/04/04 03:04:28;;;;;;;7.47;5.25;;;;;;;2.07;65.54;100427.73;1847279;77;21097;-80
2022/04/04 03:06:55;;;;;;;9.60;5.20;;;;;;;2.06;65.83;100427.23;1828812;77;21460;-92
2022/04/04 03:09:22;;;;;;;10.03;5.40;;;;;;;2.06;66.03;100415.55;1790671;77;21100;-81
2022/04/04 03:11:49;;;;;;;7.92;4.97;;;;;;;2.04;66.12;100419.77;1789531;80;21029;-81
2022/04/04 03:14:16;;;;;;;7.00;4.62;;;;;;;2.03;66.34;100417.12;1776768;79;21751;-81
2022/04/04 03:16:43;;;;;;;9.30;5.00;;;;;;;2.07;66.55;100416.47;1773089;79;21571;-81
2022/04/04 03:19:10;;;;;;;9.40;5.28;;;;;;;2.11;66.60;100406.73;1832402;77;21051;-81
2022/04/04 03:21:39;;;;;;;10.48;5.28;;;;;;;2.16;66.72;100408.25;1847771;77;21039;-81
2022/04/04 03:24:06;;;;;;;8.80;4.90;;;;;;;2.19;66.79;100408.42;1846468;77;21126;-81
2022/04/04 03:26:33;;;;;;;8.33;5.90;;;;;;;2.25;66.92;100406.14;1838075;77;21706;-80
2022/04/04 03:29:01;;;;;;;10.43;4.50;;;;;;;2.31;67.06;100405.20;1850525;77;21038;-81
2022/04/04 03:31:28;;;;;;;8.15;4.65;;;;;;;2.37;67.07;100406.80;1836578;77;21135;-81
2022/04/04 03:33:55;;;;;;;7.20;3.83;;;;;;;2.39;67.03;100399.98;1839682;77;21073;-91
2022/04/04 03:36:22;;;;;;;8.20;4.87;;;;;;;2.39;67.05;100399.09;1839076;77;21033;-91
2022/04/04 03:38:48;;;;;;;7.92;4.50;;;;;;;2.38;67.13;100389.09;1844390;76;22198;-92
2022/04/04 03:41:15;;;;;;;9.30;4.47;;;;;;;2.36;67.20;100385.52;1846018;77;21034;-91
2022/04/04 03:43:45;;;;;;;8.65;4.50;;;;;;;2.38;67.33;100388.20;1852101;77;21011;-80
2022/04/04 03:46:12;;;;;;;5.90;4.15;;;;;;;2.37;67.39;100379.53;1834527;77;21020;-81
2022/04/04 03:48:39;;;;;;;7.47;4.22;;;;;;;2.38;67.47;100383.89;1844179;77;21018;-81
2022/04/04 03:51:06;;;;;;;8.88;4.55;;;;;;;2.39;67.56;100383.09;1839585;77;21729;-79
2022/04/04 03:53:33;;;;;;;8.08;4.65;;;;;;;2.39;67.65;100379.61;1834252;77;21294;-78
2022/04/04 03:56:00;;;;;;;10.75;4.42;;;;;;;2.38;67.71;100371.32;1844771;77;21057;-78
2022/04/04 03:58:27;;;;;;;6.28;4.15;;;;;;;2.37;67.78;100371.73;1849536;77;21339;-87
2022/04/04 04:00:54;;;;;;;9.08;4.80;;;;;;;2.39;67.90;100371.41;1843245;77;20972;-76
2022/04/04 04:03:20;;;;;;;6.42;4.45;;;;;;;2.40;67.91;100369.28;1844063;77;21759;-79
2022/04/04 04:05:47;;;;;;;6.55;4.58;;;;;;;2.42;67.97;100371.95;1852875;77;20940;-90
2022/04/04 04:08:14;;;;;;;7.33;4.22;;;;;;;2.45;68.12;100374.73;1850702;77;21015;-76
2022/04/04 04:10:41;;;;;;;6.08;4.58;;;;;;;2.50;68.21;100355.08;1864571;75;21026;-78
2022/04/04 04:13:07;;;;;;;6.12;4.60;;;;;;;2.59;68.35;100355.94;1850415;75;21117;-79
2022/04/04 04:15:34;;;;;;;11.10;4.55;;;;;;;2.66;68.27;100347.64;1854349;75;21788;-78
2022/04/04 04:18:01;;;;;;;6.12;4.50;;;;;;;2.72;68.37;100342.73;1858168;77;21900;-83
2022/04/04 04:20:31;;;;;;;6.60;4.28;;;;;;;2.79;68.41;100343.95;1859889;77;21506;-79
2022/04/04 04:22:59;;;;;;;8.48;4.45;;;;;;;2.85;68.37;100337.74;1856529;77;21077;-88
2022/04/04 04:25:27;;;;;;;9.03;4.10;;;;;;;2.91;68.30;100341.55;1853982;75;21613;-91
2022/04/04 04:27:54;;;;;;;6.85;3.98;;;;;;;2.96;68.29;100342.17;1858135;75;21742;-88
2022/04/04 04:30:21;;;;;;;10.13;4.00;;;;;;;3.02;68.29;100342.47;1753020;80;21070;-79
2022/04/04 04:32:50;;;;;;;7.72;4.40;;;;;;;3.08;68.29;100344.09;1775657;78;21101;-78
2022/04/04 04:35:17;;;;;;;7.45;4.30;;;;;;;3.13;68.17;100329.99;1784564;78;21140;-77
2022/04/04 04:37:44;;;;;;;7.05;4.33;;;;;;;3.17;68.19;100334.09;1808418;77;21066;-88
2022/04/04 04:40:11;;;;;;;7.00;4.33;;;;;;;3.21;68.07;100328.64;1798605;78;21998;-79
2022/04/04 04:42:38;;;;;;;11.85;5.60;;;;;;;3.22;68.00;100323.52;1818447;78;21029;-84
2022/04/04 04:45:06;;;;;;;7.60;4.67;;;;;;;3.24;68.07;100318.39;1782829;79;21045;-78
2022/04/04 04:47:33;;;;;;;8.05;4.33;;;;;;;3.28;68.06;100316.41;1804056;78;21162;-77
2022/04/04 04:50:00;;;;;;;8.30;4.80;;;;;;;3.32;68.12;100315.73;1787136;78;21050;-81
2022/04/04 04:52:27;;;;;;;8.70;4.95;;;;;;;3.35;68.13;100313.70;1806383;78;21780;-79
2022/04/04 04:54:54;;;;;;;7.55;4.85;;;;;;;3.39;68.21;100313.02;1756128;78;21045;-79
2022/04/04 04:57:20;;;;;;;7.92;4.92;;;;;;;3.46;68.25;100312.08;1787281;78;21645;-79
2022/04/04 04:59:47;;;;;;;7.70;4.90;;;;;;;3.52;68.18;100295.85;1811568;78;21208;-81
2022/04/04 05:02:14;;;;;;;9.98;4.80;;;;;;;3.58;68.13;100296.12;1812478;78;21471;-90
2022/04/04 05:04:41;;;;;;;7.90;4.75;;;;;;;3.62;68.17;100290.27;1774115;78;22000;-89
2022/04/04 05:07:08;;;;;;;9.35;4.78;;;;;;;3.68;68.16;100290.53;1793950;79;21057;-88
2022/04/04 05:09:36;;;;;;;7.05;4.50;;;;;;;3.75;68.16;100282.56;1807703;78;21069;-90
2022/04/04 05:12:03;;;;;;;7.28;4.55;;;;;;;3.87;68.21;100289.64;1807719;78;21073;-80
2022/04/04 05:14:30;;;;;;;5.37;4.33;;;;;;;3.96;68.00;100277.45;1771183;79;21053;-90
2022/04/04 05:16:57;;;;;;;6.95;4.12;;;;;;;4.02;67.88;100273.80;1729328;82;21801;-91
2022/04/04 05:19:24;;;;;;;6.50;4.67;;;;;;;4.11;67.84;100270.72;1787970;79;21042;-90
2022/04/04 05:21:51;;;;;;;8.20;4.17;;;;;;;4.20;67.76;100273.69;1783547;80;21070;-91
2022/04/04 05:24:18;;;;;;;6.62;4.10;;;;;;;4.25;67.63;100265.66;1803081;79;21206;-91
2022/04/04 05:26:46;;;;;;;7.15;4.92;;;;;;;4.31;67.60;100268.94;1754356;80;21068;-90
2022/04/04 05:29:17;;;;;;;7.12;4.67;;;;;;;4.37;67.54;100263.98;1788784;80;22596;-82
2022/04/04 05:31:42;;;;;;;7.62;5.00;;;;;;;4.41;67.39;100267.61;1760406;80;21098;-91
2022/04/04 05:34:10;;;;;;;4.62;3.92;;;;;;;4.45;67.42;100266.52;1771421;80;21065;-91
2022/04/04 05:36:36;;;;;;;7.20;4.33;;;;;;;4.51;67.29;100264.58;1808542;79;21343;-91
2022/04/04 05:39:04;;;;;;;5.30;3.80;;;;;;;4.56;67.29;100260.84;1775211;80;21120;-91
2022/04/04 05:41:31;;;;;;;5.37;4.12;;;;;;;4.59;67.19;100264.47;1747779;81;21749;-91
2022/04/04 05:43:58;;;;;;;5.95;4.15;;;;;;;4.65;67.20;100259.53;1784505;80;21038;-91
2022/04/04 05:46:25;;;;;;;6.62;3.92;;;;;;;4.73;67.08;100266.74;1804817;79;21021;-91
2022/04/04 05:48:52;;;;;;;4.22;3.65;;;;;;;4.82;67.13;100260.20;1792699;80;21113;-91
2022/04/04 05:51:19;;;;;;;6.25;3.90;;;;;;;4.91;66.94;100263.58;1771756;80;21068;-81
2022/04/04 05:53:46;;;;;;;5.67;3.72;;;;;;;5.04;66.92;100256.70;1809423;79;21693;-81
2022/04/04 05:56:13;;;;;;;5.17;3.33;;;;;;;5.17;66.71;100256.78;1759826;80;21058;-81
2022/04/04 05:58:43;;;;;;;4.25;3.42;;;;;;;5.23;66.47;100254.39;1783977;79;21041;-82
2022/04/04 06:01:11;;;;;;;4.00;3.60;;;;;;;5.30;66.49;100256.84;1776823;80;21205;-93
2022/04/04 06:03:38;;;;;;;3.90;3.12;;;;;;;5.37;66.22;100256.25;1767496;80;21124;-92
2022/04/04 06:06:05;;;;;;;4.08;3.20;;;;;;;5.39;66.04;100254.58;1780739;79;21737;-90
2022/04/04 06:08:31;;;;;;;4.95;3.02;;;;;;;5.41;65.94;100245.51;1756024;81;22445;-82
2022/04/04 06:10:58;;;;;;;4.03;3.40;;;;;;;5.46;66.06;100251.77;1811172;79;21115;-81
2022/04/04 06:13:25;;;;;;;4.37;3.10;;;;;;;5.55;65.95;100249.92;1791129;78;21614;-81
2022/04/04 06:15:53;;;;;;;3.90;3.45;;;;;;;5.59;65.88;100246.59;1771844;79;21101;-81
2022/04/04 06:18:20;;;;;;;5.08;3.92;;;;;;;5.65;65.83;100244.23;1775301;79;22471;-81
2022/04/04 06:20:49;;;;;;;7.92;6.53;;;;;;;5.77;65.67;100236.82;1759959;80;21069;-81
2022/04/04 06:23:16;;;;;;;11.57;8.45;;;;;;;5.89;65.56;100248.11;1796219;79;21056;-81
2022/04/04 06:25:48;;;;;;;26.48;20.15;;;;;;;6.02;65.46;100248.17;1766998;79;21016;-80
2022/04/04 06:28:13;;;;;;;19.07;14.73;;;;;;;6.13;65.28;100242.90;1791606;78;21036;-80
2022/04/04 06:30:40;;;;;;;16.93;12.10;;;;;;;6.20;65.08;100238.36;1809202;79;21748;-79
2022/04/04 06:33:07;;;;;;;9.35;7.42;;;;;;;6.23;64.77;100237.17;1774912;79;21096;-90
2022/04/04 06:35:35;;;;;;;26.55;17.60;;;;;;;6.27;64.79;100239.87;1749535;80;21069;-90
2022/04/04 06:38:02;;;;;;;7.72;6.08;;;;;;;6.31;64.71;100238.73;1779882;79;21037;-91
2022/04/04 06:40:30;;;;;;;6.10;4.53;;;;;;;6.34;64.59;100236.20;1798404;79;21060;-91
2022/04/04 06:42:58;;;;;;;8.85;6.00;;;;;;;6.35;64.50;100234.08;1782617;79;21747;-81
2022/04/04 06:45:26;;;;;;;12.85;8.05;;;;;;;6.39;64.48;100225.92;1779840;79;21053;-91
2022/04/04 06:47:54;;;;;;;7.72;5.83;;;;;;;6.40;64.34;100233.82;1791438;79;21077;-90
2022/04/04 06:50:24;;;;;;;6.45;4.90;;;;;;;6.39;64.04;100220.70;1779063;79;21069;-90
2022/04/04 06:52:52;;;;;;;8.08;5.10;;;;;;;6.36;64.01;100216.66;1795217;79;21060;-80
2022/04/04 06:55:20;;;;;;;28.25;17.20;;;;;;;6.34;64.02;100221.83;1788210;79;21851;-81
2022/04/04 06:57:47;;;;;;;14.85;9.00;;;;;;;6.34;63.96;100225.75;1793074;79;21101;-91
2022/04/04 07:00:16;;;;;;;35.23;23.00;;;;;;;6.36;63.85;100225.80;1779425;79;21073;-90
2022/04/04 07:02:44;;;;;;;24.70;16.62;;;;;;;6.38;63.94;100225.05;1793936;79;21089;-91
2022/04/04 07:05:15;;;;;;;16.25;10.40;;;;;;;6.48;63.99;100218.81;1782068;79;21340;-91
2022/04/04 07:07:42;;;;;;;37.93;21.25;;;;;;;6.50;63.73;100213.21;1783020;79;21703;-91
2022/04/04 07:10:17;;;;;;;18.62;12.13;;;;;;;6.56;63.55;100216.02;1797268;79;21063;-91
2022/04/04 07:12:50;;;;;;;7.15;4.58;;;;;;;6.61;63.62;100213.14;1795874;79;22112;-82
2022/04/04 07:15:15;;;;;;;6.00;4.45;;;;;;;6.67;63.37;100208.10;1785884;79;21034;-91
2022/04/04 07:17:50;;;;;;;6.80;4.70;;;;;;;6.79;63.53;100210.20;1788431;79;21026;-89
2022/04/04 07:20:19;;;;;;;6.40;4.67;;;;;;;6.94;63.51;100196.72;1803779;79;22589;-90
2022/04/04 07:22:45;;;;;;;7.47;5.45;;;;;;;7.16;63.47;100191.29;1799008;79;21089;-91
2022/04/04 07:25:14;;;;;;;8.45;6.10;;;;;;;7.37;63.08;100194.07;1786353;79;21078;-89
2022/04/04 07:27:44;;;;;;;11.65;8.38;;;;;;;7.46;62.63;100194.34;1830624;77;21043;-88
2022/04/04 07:30:14;;;;;;;7.37;5.10;;;;;;;7.58;62.35;100188.16;1845010;77;21623;-90
2022/04/04 07:32:41;;;;;;;14.35;9.95;;;;;;;7.67;62.23;100191.42;1848587;77;21700;-90
2022/04/04 07:35:12;;;;;;;7.45;5.65;;;;;;;7.77;61.86;100182.99;1851645;77;21050;-92
2022/04/04 07:37:40;;;;;;;7.83;6.83;;;;;;;7.82;61.59;100182.22;1849400;77;21240;-86
2022/04/04 07:40:14;;;;;;;12.90;11.15;;;;;;;7.86;61.57;100179.71;1836807;77;21531;-85
2022/04/04 07:42:42;;;;;;;9.05;7.05;;;;;;;7.91;61.44;100182.04;1847570;75;21127;-89
2022/04/04 07:45:11;;;;;;;7.83;6.08;;;;;;;7.93;61.04;100184.70;1836406;77;21756;-89
2022/04/04 07:47:38;;;;;;;7.33;4.75;;;;;;;7.87;60.79;100177.57;1835152;77;21519;-79
2022/04/04 07:50:06;;;;;;;10.75;6.83;;;;;;;7.80;60.73;100179.55;1820554;77;21031;-92
2022/04/04 07:52:32;;;;;;;5.47;3.95;;;;;;;7.83;60.71;100179.65;1826200;75;21196;-89
2022/04/04 07:54:59;;;;;;;8.58;6.47;;;;;;;7.87;60.48;100185.86;1843260;77;21057;-90
2022/04/04 07:57:26;;;;;;;12.03;7.92;;;;;;;7.79;60.37;100179.11;1813519;77;22460;-90
2022/04/04 07:59:53;;;;;;;8.73;5.78;;;;;;;7.67;60.23;100187.93;1833101;77;21000;-90
2022/04/04 08:02:20;;;;;;;8.53;5.50;;;;;;;7.52;60.16;100184.03;1830789;77;21046;-91
2022/04/04 08:04:47;;;;;;;8.65;5.72;;;;;;;7.47;60.32;100190.89;1840963;77;21407;-91
2022/04/04 08:07:15;;;;;;;9.38;6.40;;;;;;;7.39;59.99;100184.13;1839450;77;21017;-90
2022/04/04 08:09:43;;;;;;;9.55;5.67;;;;;;;7.23;60.10;100174.05;1839985;77;21999;-80
2022/04/04 08:12:10;;;;;;;8.55;5.03;;;;;;;7.15;60.23;100182.08;1816789;77;21023;-92
2022/04/04 08:14:37;;;;;;;8.05;5.75;;;;;;;7.06;60.34;100181.41;1837363;77;21023;-92
2022/04/04 08:17:05;;;;;;;10.63;6.70;;;;;;;7.10;60.55;100177.15;1837010;77;21094;-91
2022/04/04 08:19:32;;;;;;;7.50;4.17;;;;;;;7.18;60.57;100169.09;1827980;77;21473;-91
2022/04/04 08:21:59;;;;;;;8.38;4.85;;;;;;;7.28;60.50;100171.16;1853203;75;22425;-90
2022/04/04 08:24:25;;;;;;;6.17;3.95;;;;;;;7.36;60.31;100170.06;1777363;80;21017;-84
2022/04/04 08:26:52;;;;;;;8.93;4.40;;;;;;;7.42;60.19;100168.91;1841032;77;21007;-89
2022/04/04 08:29:19;;;;;;;6.70;4.62;;;;;;;7.45;60.11;100169.41;1845896;77;21027;-90
2022/04/04 08:31:46;;;;;;;8.23;3.95;;;;;;;7.55;60.06;100154.00;1839791;77;21527;-88
2022/04/04 08:34:13;;;;;;;5.70;3.83;;;;;;;7.67;59.80;100164.35;1839363;77;21767;-90
2022/04/04 08:36:41;;;;;;;5.85;4.33;;;;;;;7.86;59.76;100156.13;1809457;79;21633;-90
2022/04/04 08:39:10;;;;;;;5.92;4.05;;;;;;;8.14;59.73;100151.61;1799092;79;21043;-91
2022/04/04 08:41:37;;;;;;;6.30;3.70;;;;;;;8.30;59.37;100154.20;1854754;77;20945;-90
2022/04/04 08:44:05;;;;;;;8.90;4.40;;;;;;;8.45;58.88;100136.67;1839735;77;21036;-91
2022/04/04 08:46:34;;;;;;;6.62;4.45;;;;;;;8.60;58.86;100134.84;1835412;77;21851;-88
2022/04/04 08:49:05;;;;;;;30.70;17.82;;;;;;;8.78;58.56;100131.28;1841268;77;21019;-91
2022/04/04 08:51:33;;;;;;;62.10;37.38;;;;;;;8.93;58.33;100118.53;1818935;77;21022;-90
2022/04/04 08:53:59;;;;;;;102.95;49.50;;;;;;;8.97;57.83;100118.57;1825492;75;21011;-90
2022/04/04 08:56:26;;;;;;;18.30;8.78;;;;;;;9.10;57.81;100109.70;1792586;77;21048;-90
2022/04/04 08:58:55;;;;;;;9.58;5.60;;;;;;;9.27;57.60;100110.44;1815038;77;21787;-90
2022/04/04 09:01:23;;;;;;;8.13;5.25;;;;;;;9.47;57.67;100114.78;1840301;77;21608;-91
2022/04/04 09:04:05;;;;;;;9.20;4.92;;;;;;;9.57;56.94;100107.95;1846276;75;21031;-93
2022/04/04 09:06:34;;;;;;;24.25;16.50;;;;;;;9.56;56.82;100100.50;1843343;75;21039;-79
2022/04/04 09:09:01;;;;;;;24.25;15.85;;;;;;;9.74;56.55;100092.05;1804815;77;21516;-80
2022/04/04 09:11:28;;;;;;;14.40;8.88;;;;;;;9.79;56.14;100100.03;1802346;79;21723;-90
2022/04/04 09:14:10;;;;;;;24.65;14.03;;;;;;;9.72;55.86;100088.11;1830012;77;21050;-81
2022/04/04 09:16:34;;;;;;;22.50;11.10;;;;;;;9.69;56.01;100086.73;1826536;77;20998;-92
2022/04/04 09:19:02;;;;;;;16.23;10.30;;;;;;;9.80;56.09;100080.76;1855747;77;21065;-90
2022/04/04 09:21:31;;;;;;;13.95;9.28;;;;;;;9.88;55.66;100081.80;1862998;77;21038;-81
2022/04/04 09:24:02;;;;;;;14.73;8.73;;;;;;;9.97;55.40;100062.23;1852334;77;21757;-81
2022/04/04 09:26:36;;;;;;;14.55;5.97;;;;;;;9.97;55.12;100053.03;1842826;75;21499;-80
2022/04/04 09:29:21;;;;;;;9.10;4.95;;;;;;;9.93;55.07;100053.41;1848403;77;21014;-80
2022/04/04 09:31:57;;;;;;;11.40;5.37;;;;;;;9.93;54.87;100045.97;1856133;77;21024;-90
2022/04/04 09:34:24;;;;;;;10.23;5.83;;;;;;;9.90;54.78;100044.59;1857530;77;21059;-80
2022/04/04 09:36:51;;;;;;;11.57;5.70;;;;;;;9.90;54.75;100031.45;1853212;77;21701;-82
2022/04/04 09:39:21;;;;;;;6.87;3.42;;;;;;;9.98;54.78;100028.50;1847262;75;21025;-90
2022/04/04 09:41:53;;;;;;;5.87;3.87;;;;;;;9.96;54.05;100020.14;1883336;75;21027;-90
2022/04/04 09:44:25;;;;;;;8.53;3.70;;;;;;;9.83;53.82;100012.05;1860825;77;21085;-81
2022/04/04 09:46:50;;;;;;;11.20;6.22;;;;;;;9.82;53.71;100008.11;1832115;77;21030;-90
2022/04/04 09:49:20;;;;;;;10.05;5.37;;;;;;;9.83;53.73;99999.34;1838087;77;21742;-82
2022/04/04 09:51:53;;;;;;;11.30;6.83;;;;;;;10.02;54.05;99996.16;1824795;77;21631;-81
2022/04/04 09:54:23;;;;;;;12.05;7.50;;;;;;;10.27;53.83;99989.94;1828733;77;21093;-91
2022/04/04 09:56:56;;;;;;;11.55;6.10;;;;;;;10.48;53.47;99994.19;1830137;77;21014;-91
2022/04/04 09:59:23;;;;;;;8.18;4.00;;;;;;;10.53;52.86;99992.95;1838108;77;21558;-91
2022/04/04 10:01:49;;;;;;;15.90;8.10;;;;;;;10.49;52.27;99983.22;1831150;77;21757;-91
2022/04/04 10:04:17;;;;;;;11.57;5.67;;;;;;;10.48;51.89;99973.59;1863431;77;21055;-91
2022/04/04 10:06:47;;;;;;;11.00;7.00;;;;;;;10.44;51.49;99960.81;1862809;77;21027;-91
2022/04/04 10:09:13;;;;;;;6.30;4.15;;;;;;;10.43;51.47;99965.61;1853035;76;21534;-91
2022/04/04 10:11:40;;;;;;;10.25;6.28;;;;;;;10.54;51.46;99955.23;1802385;78;21041;-83
2022/04/04 10:14:07;;;;;;;13.75;7.40;;;;;;;10.58;51.03;99954.84;1831520;77;21840;-81
2022/04/04 10:16:34;;;;;;;10.28;5.42;;;;;;;10.55;50.65;99944.27;1830629;77;21073;-92
2022/04/04 10:19:01;;;;;;;14.68;8.33;;;;;;;10.57;50.68;99939.94;1796525;78;20998;-90
2022/04/04 10:21:28;;;;;;;9.08;5.47;;;;;;;10.59;50.30;99934.25;1805831;78;21559;-81
2022/04/04 10:24:00;;;;;;;10.82;4.25;;;;;;;10.65;50.18;99926.42;1801837;78;22238;-81
2022/04/04 10:26:33;;;;;;;7.67;4.12;;;;;;;10.56;49.67;99926.31;1797517;77;21175;-81
2022/04/04 10:29:13;;;;;;;11.43;6.65;;;;;;;10.47;49.48;99911.28;1799305;77;21075;-80
2022/04/04 10:31:52;;;;;;;10.63;7.00;;;;;;;10.45;49.26;99914.33;1777933;79;21738;-90
2022/04/04 10:34:24;;;;;;;8.28;4.35;;;;;;;10.39;48.96;99894.09;1769630;79;21105;-88
2022/04/04 10:37:01;;;;;;;11.73;6.83;;;;;;;10.33;48.82;99907.63;1790478;79;21222;-90
2022/04/04 10:39:47;;;;;;;11.83;7.30;;;;;;;10.39;48.78;99894.09;1798720;79;21750;-81
2022/04/04 10:42:36;;;;;;;14.85;7.15;;;;;;;10.46;48.51;99897.70;1792103;79;21550;-82
2022/04/04 10:45:09;;;;;;;10.13;5.58;;;;;;;10.58;48.42;99892.56;1789338;79;21098;-81
2022/04/04 10:47:39;;;;;;;9.85;5.28;;;;;;;10.70;48.25;99879.98;1761622;79;21066;-92
2022/04/04 10:50:30;;;;;;;6.67;4.60;;;;;;;10.80;48.12;99881.83;1788164;79;21049;-88
2022/04/04 10:53:49;;;;;;;11.57;5.50;;;;;;;10.93;47.75;99874.94;1754354;79;21784;-91
2022/04/04 10:56:20;;;;;;;7.08;4.40;;;;;;;10.96;47.56;99876.70;1789320;77;21074;-91
2022/04/04 10:58:47;;;;;;;6.22;2.80;;;;;;;10.98;47.23;99869.70;1777850;79;21029;-81
2022/04/04 11:01:16;;;;;;;8.95;4.05;;;;;;;11.01;46.81;99856.13;1770526;80;22065;-80
2022/04/04 11:03:58;;;;;;;5.40;3.45;;;;;;;10.99;46.60;99860.51;1798144;79;21092;-81
2022/04/04 11:09:32;;;;;;;7.30;3.10;;;;;;;11.01;46.45;99855.26;1802966;79;21058;-81
2022/04/04 11:12:14;;;;;;;8.08;3.83;;;;;;;11.07;46.14;99846.99;1797351;79;21144;-80
2022/04/04 11:14:42;;;;;;;10.55;3.00;;;;;;;11.12;45.98;99831.21;1792901;79;21129;-92
2022/04/04 11:17:19;;;;;;;7.97;3.35;;;;;;;10.99;45.53;99842.08;1782196;78;21085;-81
2022/04/04 11:19:52;;;;;;;7.17;3.40;;;;;;;10.98;45.53;99824.94;1783948;78;21678;-81
2022/04/04 11:22:26;;;;;;;7.03;4.00;;;;;;;11.03;45.29;99821.92;1780306;78;21057;-82
2022/04/04 11:25:05;;;;;;;2.98;2.25;;;;;;;11.17;45.51;99804.93;1793610;79;21067;-90
2022/04/04 11:27:36;;;;;;;5.83;2.62;;;;;;;11.19;45.21;99804.05;1744248;80;21096;-82
2022/04/04 11:30:11;;;;;;;10.63;2.30;;;;;;;11.26;44.98;99809.82;1785958;77;21550;-80
2022/04/04 11:32:40;;;;;;;7.33;3.02;;;;;;;11.28;44.64;99798.85;1849762;75;21745;-90
2022/04/04 11:35:22;;;;;;;13.35;5.20;;;;;;;11.30;44.52;99777.80;1806556;75;21093;-81
2022/04/04 11:38:02;;;;;;;9.55;3.40;;;;;;;11.22;44.32;99777.75;1843518;75;21149;-82
2022/04/04 11:40:34;;;;;;;4.65;3.35;;;;;;;11.25;44.43;99777.75;1840802;75;21074;-82
2022/04/04 11:43:09;;;;;;;6.85;4.10;;;;;;;11.31;44.11;99766.37;1846682;75;21074;-81